sensor_id;sensor_type;location;lat;lon;timestamp;temperature;humidity
61398;DHT22;47267;48.130;-2.040;2023-10-09T00:00:31;22.20;57.90
61398;DHT22;47267;48.130;-2.040;2023-10-09T00:03:06;22.10;57.90
61398;DHT22;47267;48.130;-2.040;2023-10-09T00:05:36;22.10;57.90
61398;DHT22;47267;48.130;-2.040;2023-10-09T00:08:22;22.10;57.90
61398;DHT22;47267;48.130;-2.040;2023-10-09T00:10:48;22.10;57.80
61398;DHT22;47267;48.130;-2.040;2023-10-09T00:13:21;22.10;57.80
61398;DHT22;47267;48.130;-2.040;2023-10-09T00:15:53;22.00;57.80
61398;DHT22;47267;48.130;-2.040;2023-10-09T00:18:24;22.00;57.80
61398;DHT22;47267;48.130;-2.040;2023-10-09T00:20:54;22.00;57.80
61398;DHT22;47267;48.130;-2.040;2023-10-09T00:23:20;22.00;57.70
61398;DHT22;47267;48.130;-2.040;2023-10-09T00:25:51;22.00;57.70
61398;DHT22;47267;48.130;-2.040;2023-10-09T00:28:40;21.90;57.60
61398;DHT22;47267;48.130;-2.040;2023-10-09T00:31:13;21.90;57.60
61398;DHT22;47267;48.130;-2.040;2023-10-09T00:33:51;21.90;57.60
61398;DHT22;47267;48.130;-2.040;2023-10-09T00:36:18;21.90;57.70
61398;DHT22;47267;48.130;-2.040;2023-10-09T00:38:53;21.90;57.70
61398;DHT22;47267;48.130;-2.040;2023-10-09T00:41:19;21.90;57.70
61398;DHT22;47267;48.130;-2.040;2023-10-09T00:43:51;21.90;57.60
61398;DHT22;47267;48.130;-2.040;2023-10-09T00:46:18;21.80;57.60
61398;DHT22;47267;48.130;-2.040;2023-10-09T00:48:49;21.80;57.50
61398;DHT22;47267;48.130;-2.040;2023-10-09T00:51:18;21.80;57.50
61398;DHT22;47267;48.130;-2.040;2023-10-09T00:53:48;21.80;57.50
61398;DHT22;47267;48.130;-2.040;2023-10-09T00:56:21;21.80;57.40
61398;DHT22;47267;48.130;-2.040;2023-10-09T00:58:51;21.80;57.50
61398;DHT22;47267;48.130;-2.040;2023-10-09T01:01:24;21.70;57.40
61398;DHT22;47267;48.130;-2.040;2023-10-09T01:04:06;21.70;57.40
61398;DHT22;47267;48.130;-2.040;2023-10-09T01:06:40;21.70;57.30
61398;DHT22;47267;48.130;-2.040;2023-10-09T01:09:13;21.70;57.40
61398;DHT22;47267;48.130;-2.040;2023-10-09T01:11:42;21.70;57.40
61398;DHT22;47267;48.130;-2.040;2023-10-09T01:14:29;21.70;57.90
61398;DHT22;47267;48.130;-2.040;2023-10-09T01:16:56;21.60;57.30
61398;DHT22;47267;48.130;-2.040;2023-10-09T01:19:22;21.60;57.30
61398;DHT22;47267;48.130;-2.040;2023-10-09T01:21:54;21.60;57.20
61398;DHT22;47267;48.130;-2.040;2023-10-09T01:24:20;21.60;57.30
61398;DHT22;47267;48.130;-2.040;2023-10-09T01:26:47;21.60;57.30
61398;DHT22;47267;48.130;-2.040;2023-10-09T01:29:16;21.50;57.20
61398;DHT22;47267;48.130;-2.040;2023-10-09T01:31:49;21.50;57.10
61398;DHT22;47267;48.130;-2.040;2023-10-09T01:34:24;21.50;57.20
61398;DHT22;47267;48.130;-2.040;2023-10-09T01:36:51;21.50;57.10
61398;DHT22;47267;48.130;-2.040;2023-10-09T01:39:19;21.50;57.10
61398;DHT22;47267;48.130;-2.040;2023-10-09T01:42:05;21.50;57.20
61398;DHT22;47267;48.130;-2.040;2023-10-09T01:44:32;21.50;57.10
61398;DHT22;47267;48.130;-2.040;2023-10-09T01:47:02;21.40;57.10
61398;DHT22;47267;48.130;-2.040;2023-10-09T01:49:36;21.40;57.10
61398;DHT22;47267;48.130;-2.040;2023-10-09T01:52:09;21.40;57.00
61398;DHT22;47267;48.130;-2.040;2023-10-09T01:54:39;21.40;57.40
61398;DHT22;47267;48.130;-2.040;2023-10-09T01:57:12;21.40;57.00
61398;DHT22;47267;48.130;-2.040;2023-10-09T01:59:44;21.40;57.00
61398;DHT22;47267;48.130;-2.040;2023-10-09T02:02:13;21.30;56.90
61398;DHT22;47267;48.130;-2.040;2023-10-09T02:04:56;21.30;56.90
61398;DHT22;47267;48.130;-2.040;2023-10-09T02:07:51;21.30;56.90
61398;DHT22;47267;48.130;-2.040;2023-10-09T02:10:21;21.30;57.00
61398;DHT22;47267;48.130;-2.040;2023-10-09T02:12:56;21.30;56.90
61398;DHT22;47267;48.130;-2.040;2023-10-09T02:15:29;21.30;56.80
61398;DHT22;47267;48.130;-2.040;2023-10-09T02:18:14;21.30;56.90
61398;DHT22;47267;48.130;-2.040;2023-10-09T02:20:50;21.30;56.90
61398;DHT22;47267;48.130;-2.040;2023-10-09T02:23:30;21.20;56.80
61398;DHT22;47267;48.130;-2.040;2023-10-09T02:26:16;21.20;56.80
61398;DHT22;47267;48.130;-2.040;2023-10-09T02:28:48;21.20;56.80
61398;DHT22;47267;48.130;-2.040;2023-10-09T02:31:33;21.20;56.80
61398;DHT22;47267;48.130;-2.040;2023-10-09T02:34:08;21.10;56.70
61398;DHT22;47267;48.130;-2.040;2023-10-09T02:36:34;21.10;56.70
61398;DHT22;47267;48.130;-2.040;2023-10-09T02:39:09;21.10;56.70
61398;DHT22;47267;48.130;-2.040;2023-10-09T02:41:55;21.10;56.70
61398;DHT22;47267;48.130;-2.040;2023-10-09T02:44:27;21.10;56.70
61398;DHT22;47267;48.130;-2.040;2023-10-09T02:46:59;21.10;56.70
61398;DHT22;47267;48.130;-2.040;2023-10-09T02:49:30;21.00;56.60
61398;DHT22;47267;48.130;-2.040;2023-10-09T02:51:56;21.00;56.60
61398;DHT22;47267;48.130;-2.040;2023-10-09T02:54:21;21.00;56.60
61398;DHT22;47267;48.130;-2.040;2023-10-09T02:56:48;21.00;56.60
61398;DHT22;47267;48.130;-2.040;2023-10-09T02:59:20;21.00;56.60
61398;DHT22;47267;48.130;-2.040;2023-10-09T03:01:47;21.00;56.50
61398;DHT22;47267;48.130;-2.040;2023-10-09T03:04:13;21.00;56.50
61398;DHT22;47267;48.130;-2.040;2023-10-09T03:06:41;20.90;56.40
61398;DHT22;47267;48.130;-2.040;2023-10-09T03:09:18;20.90;56.40
61398;DHT22;47267;48.130;-2.040;2023-10-09T03:11:52;20.90;56.40
61398;DHT22;47267;48.130;-2.040;2023-10-09T03:14:21;20.90;56.40
61398;DHT22;47267;48.130;-2.040;2023-10-09T03:16:52;20.90;56.40
61398;DHT22;47267;48.130;-2.040;2023-10-09T03:19:17;20.80;56.30
61398;DHT22;47267;48.130;-2.040;2023-10-09T03:21:43;20.80;56.30
61398;DHT22;47267;48.130;-2.040;2023-10-09T03:24:09;20.90;56.40
61398;DHT22;47267;48.130;-2.040;2023-10-09T03:26:37;20.80;56.30
61398;DHT22;47267;48.130;-2.040;2023-10-09T03:29:02;20.80;56.30
61398;DHT22;47267;48.130;-2.040;2023-10-09T03:31:32;20.80;56.20
61398;DHT22;47267;48.130;-2.040;2023-10-09T03:33:59;20.80;56.30
61398;DHT22;47267;48.130;-2.040;2023-10-09T03:36:25;20.80;56.30
61398;DHT22;47267;48.130;-2.040;2023-10-09T03:38:52;20.80;56.20
61398;DHT22;47267;48.130;-2.040;2023-10-09T03:41:21;20.80;56.20
61398;DHT22;47267;48.130;-2.040;2023-10-09T03:43:46;20.70;56.20
61398;DHT22;47267;48.130;-2.040;2023-10-09T03:46:13;20.70;56.20
61398;DHT22;47267;48.130;-2.040;2023-10-09T03:48:52;20.70;56.20
61398;DHT22;47267;48.130;-2.040;2023-10-09T03:51:21;20.70;56.20
61398;DHT22;47267;48.130;-2.040;2023-10-09T03:53:50;20.70;56.20
61398;DHT22;47267;48.130;-2.040;2023-10-09T03:56:18;20.70;56.20
61398;DHT22;47267;48.130;-2.040;2023-10-09T03:58:46;20.60;56.10
61398;DHT22;47267;48.130;-2.040;2023-10-09T04:01:19;20.60;56.10
61398;DHT22;47267;48.130;-2.040;2023-10-09T04:03:53;20.60;56.10
61398;DHT22;47267;48.130;-2.040;2023-10-09T04:06:25;20.60;56.10
61398;DHT22;47267;48.130;-2.040;2023-10-09T04:08:57;20.60;56.10
61398;DHT22;47267;48.130;-2.040;2023-10-09T04:11:24;20.60;56.10
61398;DHT22;47267;48.130;-2.040;2023-10-09T04:13:51;20.50;56.00
61398;DHT22;47267;48.130;-2.040;2023-10-09T04:16:21;20.50;56.00
61398;DHT22;47267;48.130;-2.040;2023-10-09T04:18:56;20.50;56.10
61398;DHT22;47267;48.130;-2.040;2023-10-09T04:21:22;20.50;56.00
61398;DHT22;47267;48.130;-2.040;2023-10-09T04:24:08;20.50;56.00
61398;DHT22;47267;48.130;-2.040;2023-10-09T04:26:44;20.50;56.00
61398;DHT22;47267;48.130;-2.040;2023-10-09T04:29:11;20.50;56.40
61398;DHT22;47267;48.130;-2.040;2023-10-09T04:31:45;20.40;56.00
61398;DHT22;47267;48.130;-2.040;2023-10-09T04:34:17;20.40;55.90
61398;DHT22;47267;48.130;-2.040;2023-10-09T04:37:16;20.40;55.90
61398;DHT22;47267;48.130;-2.040;2023-10-09T04:40:00;20.40;55.90
61398;DHT22;47267;48.130;-2.040;2023-10-09T04:42:48;20.40;55.90
61398;DHT22;47267;48.130;-2.040;2023-10-09T04:45:23;20.30;55.90
61398;DHT22;47267;48.130;-2.040;2023-10-09T04:48:24;20.30;55.80
61398;DHT22;47267;48.130;-2.040;2023-10-09T04:51:03;20.30;55.90
61398;DHT22;47267;48.130;-2.040;2023-10-09T04:53:58;20.30;55.90
61398;DHT22;47267;48.130;-2.040;2023-10-09T04:56:42;20.30;55.80
61398;DHT22;47267;48.130;-2.040;2023-10-09T04:59:20;20.30;55.90
61398;DHT22;47267;48.130;-2.040;2023-10-09T05:01:51;20.30;55.90
61398;DHT22;47267;48.130;-2.040;2023-10-09T05:04:26;20.30;55.80
61398;DHT22;47267;48.130;-2.040;2023-10-09T05:07:03;20.30;55.90
61398;DHT22;47267;48.130;-2.040;2023-10-09T05:09:48;20.20;55.80
61398;DHT22;47267;48.130;-2.040;2023-10-09T05:12:33;20.20;55.80
61398;DHT22;47267;48.130;-2.040;2023-10-09T05:14:59;20.20;55.70
61398;DHT22;47267;48.130;-2.040;2023-10-09T05:17:35;20.20;55.70
61398;DHT22;47267;48.130;-2.040;2023-10-09T05:20:02;20.20;55.80
61398;DHT22;47267;48.130;-2.040;2023-10-09T05:22:46;20.20;55.70
61398;DHT22;47267;48.130;-2.040;2023-10-09T05:25:28;20.20;55.70
61398;DHT22;47267;48.130;-2.040;2023-10-09T05:28:17;20.10;55.70
61398;DHT22;47267;48.130;-2.040;2023-10-09T05:31:11;20.10;55.70
61398;DHT22;47267;48.130;-2.040;2023-10-09T05:33:57;20.10;55.70
61398;DHT22;47267;48.130;-2.040;2023-10-09T05:36:27;20.10;55.70
61398;DHT22;47267;48.130;-2.040;2023-10-09T05:38:53;20.10;55.70
61398;DHT22;47267;48.130;-2.040;2023-10-09T05:41:27;20.10;55.70
61398;DHT22;47267;48.130;-2.040;2023-10-09T05:44:11;20.10;55.80
61398;DHT22;47267;48.130;-2.040;2023-10-09T05:46:54;20.00;55.70
61398;DHT22;47267;48.130;-2.040;2023-10-09T05:49:39;20.10;55.80
61398;DHT22;47267;48.130;-2.040;2023-10-09T05:52:23;20.00;55.80
61398;DHT22;47267;48.130;-2.040;2023-10-09T05:54:58;20.00;55.90
61398;DHT22;47267;48.130;-2.040;2023-10-09T05:57:43;20.00;55.90
61398;DHT22;47267;48.130;-2.040;2023-10-09T06:00:27;20.00;56.00
61398;DHT22;47267;48.130;-2.040;2023-10-09T06:03:11;20.00;56.10
61398;DHT22;47267;48.130;-2.040;2023-10-09T06:05:50;20.00;56.10
61398;DHT22;47267;48.130;-2.040;2023-10-09T06:08:19;20.00;56.10
61398;DHT22;47267;48.130;-2.040;2023-10-09T06:11:05;20.00;56.20
61398;DHT22;47267;48.130;-2.040;2023-10-09T06:13:49;19.90;56.20
61398;DHT22;47267;48.130;-2.040;2023-10-09T06:16:28;19.90;56.20
61398;DHT22;47267;48.130;-2.040;2023-10-09T06:19:26;20.00;56.30
61398;DHT22;47267;48.130;-2.040;2023-10-09T06:21:58;19.90;56.20
61398;DHT22;47267;48.130;-2.040;2023-10-09T06:24:45;19.90;56.30
61398;DHT22;47267;48.130;-2.040;2023-10-09T06:27:20;19.90;56.30
61398;DHT22;47267;48.130;-2.040;2023-10-09T06:30:10;19.90;56.30
61398;DHT22;47267;48.130;-2.040;2023-10-09T06:32:44;19.90;56.30
61398;DHT22;47267;48.130;-2.040;2023-10-09T06:35:17;19.90;56.30
61398;DHT22;47267;48.130;-2.040;2023-10-09T06:37:56;19.80;56.30
61398;DHT22;47267;48.130;-2.040;2023-10-09T06:40:29;19.80;56.40
61398;DHT22;47267;48.130;-2.040;2023-10-09T06:43:14;19.80;56.30
61398;DHT22;47267;48.130;-2.040;2023-10-09T06:45:46;19.80;56.30
61398;DHT22;47267;48.130;-2.040;2023-10-09T06:48:12;19.80;56.40
61398;DHT22;47267;48.130;-2.040;2023-10-09T06:50:57;19.80;56.40
61398;DHT22;47267;48.130;-2.040;2023-10-09T06:53:43;19.80;56.40
61398;DHT22;47267;48.130;-2.040;2023-10-09T06:56:22;19.80;56.80
61398;DHT22;47267;48.130;-2.040;2023-10-09T06:58:58;19.80;56.60
61398;DHT22;47267;48.130;-2.040;2023-10-09T07:01:25;19.80;56.60
61398;DHT22;47267;48.130;-2.040;2023-10-09T07:03:59;19.80;56.70
61398;DHT22;47267;48.130;-2.040;2023-10-09T07:06:44;19.80;56.60
61398;DHT22;47267;48.130;-2.040;2023-10-09T07:09:10;19.80;56.70
61398;DHT22;47267;48.130;-2.040;2023-10-09T07:11:38;19.80;56.80
61398;DHT22;47267;48.130;-2.040;2023-10-09T07:14:13;19.70;57.30
61398;DHT22;47267;48.130;-2.040;2023-10-09T07:17:07;19.80;56.80
61398;DHT22;47267;48.130;-2.040;2023-10-09T07:19:53;19.80;56.80
61398;DHT22;47267;48.130;-2.040;2023-10-09T07:22:19;19.80;56.80
61398;DHT22;47267;48.130;-2.040;2023-10-09T07:24:52;19.70;56.80
61398;DHT22;47267;48.130;-2.040;2023-10-09T07:27:36;19.70;56.80
61398;DHT22;47267;48.130;-2.040;2023-10-09T07:30:22;19.80;56.90
61398;DHT22;47267;48.130;-2.040;2023-10-09T07:33:07;19.80;56.90
61398;DHT22;47267;48.130;-2.040;2023-10-09T07:35:34;19.80;56.90
61398;DHT22;47267;48.130;-2.040;2023-10-09T07:38:09;19.70;56.90
61398;DHT22;47267;48.130;-2.040;2023-10-09T07:40:38;19.70;56.90
61398;DHT22;47267;48.130;-2.040;2023-10-09T07:43:31;19.70;56.90
61398;DHT22;47267;48.130;-2.040;2023-10-09T07:46:18;19.80;56.90
61398;DHT22;47267;48.130;-2.040;2023-10-09T07:49:02;19.80;56.90
61398;DHT22;47267;48.130;-2.040;2023-10-09T07:51:39;19.80;56.90
61398;DHT22;47267;48.130;-2.040;2023-10-09T07:54:09;19.80;56.90
61398;DHT22;47267;48.130;-2.040;2023-10-09T07:56:38;19.80;56.90
61398;DHT22;47267;48.130;-2.040;2023-10-09T07:59:09;19.80;56.90
61398;DHT22;47267;48.130;-2.040;2023-10-09T08:01:40;19.70;56.90
61398;DHT22;47267;48.130;-2.040;2023-10-09T08:04:20;19.70;56.90
61398;DHT22;47267;48.130;-2.040;2023-10-09T08:07:09;19.70;56.90
61398;DHT22;47267;48.130;-2.040;2023-10-09T08:09:36;19.80;56.90
61398;DHT22;47267;48.130;-2.040;2023-10-09T08:12:16;19.80;56.90
61398;DHT22;47267;48.130;-2.040;2023-10-09T08:15:06;19.70;56.90
61398;DHT22;47267;48.130;-2.040;2023-10-09T08:18:02;19.80;57.00
61398;DHT22;47267;48.130;-2.040;2023-10-09T08:20:43;19.80;57.00
61398;DHT22;47267;48.130;-2.040;2023-10-09T08:23:27;19.70;56.90
61398;DHT22;47267;48.130;-2.040;2023-10-09T08:26:14;19.80;57.00
61398;DHT22;47267;48.130;-2.040;2023-10-09T08:28:41;19.80;56.90
61398;DHT22;47267;48.130;-2.040;2023-10-09T08:31:12;19.80;57.00
61398;DHT22;47267;48.130;-2.040;2023-10-09T08:34:07;19.80;57.00
61398;DHT22;47267;48.130;-2.040;2023-10-09T08:36:35;19.80;57.00
61398;DHT22;47267;48.130;-2.040;2023-10-09T08:39:03;19.80;57.00
61398;DHT22;47267;48.130;-2.040;2023-10-09T08:41:48;19.80;57.00
61398;DHT22;47267;48.130;-2.040;2023-10-09T08:44:19;19.80;57.00
61398;DHT22;47267;48.130;-2.040;2023-10-09T08:46:49;19.80;57.00
61398;DHT22;47267;48.130;-2.040;2023-10-09T08:49:16;19.80;57.00
61398;DHT22;47267;48.130;-2.040;2023-10-09T08:51:42;19.80;57.00
61398;DHT22;47267;48.130;-2.040;2023-10-09T08:54:08;19.80;57.00
61398;DHT22;47267;48.130;-2.040;2023-10-09T08:56:37;19.80;57.00
61398;DHT22;47267;48.130;-2.040;2023-10-09T08:59:05;19.80;57.00
61398;DHT22;47267;48.130;-2.040;2023-10-09T09:01:31;19.80;57.00
61398;DHT22;47267;48.130;-2.040;2023-10-09T09:03:59;19.90;57.00
61398;DHT22;47267;48.130;-2.040;2023-10-09T09:06:36;19.80;57.00
61398;DHT22;47267;48.130;-2.040;2023-10-09T09:09:13;19.80;57.00
61398;DHT22;47267;48.130;-2.040;2023-10-09T09:11:42;19.80;57.00
61398;DHT22;47267;48.130;-2.040;2023-10-09T09:14:14;19.80;57.00
61398;DHT22;47267;48.130;-2.040;2023-10-09T09:16:45;19.80;57.00
61398;DHT22;47267;48.130;-2.040;2023-10-09T09:19:14;19.90;57.00
61398;DHT22;47267;48.130;-2.040;2023-10-09T09:21:51;19.90;57.10
61398;DHT22;47267;48.130;-2.040;2023-10-09T09:24:20;19.90;57.00
61398;DHT22;47267;48.130;-2.040;2023-10-09T09:26:54;19.90;57.10
61398;DHT22;47267;48.130;-2.040;2023-10-09T09:29:39;19.90;57.10
61398;DHT22;47267;48.130;-2.040;2023-10-09T09:32:06;19.90;57.10
61398;DHT22;47267;48.130;-2.040;2023-10-09T09:34:53;19.90;57.10
61398;DHT22;47267;48.130;-2.040;2023-10-09T09:37:52;19.90;57.10
61398;DHT22;47267;48.130;-2.040;2023-10-09T09:40:20;19.90;57.10
61398;DHT22;47267;48.130;-2.040;2023-10-09T09:42:59;19.90;57.10
61398;DHT22;47267;48.130;-2.040;2023-10-09T09:45:34;19.90;57.10
61398;DHT22;47267;48.130;-2.040;2023-10-09T09:48:06;19.90;57.10
61398;DHT22;47267;48.130;-2.040;2023-10-09T09:50:33;19.90;57.10
61398;DHT22;47267;48.130;-2.040;2023-10-09T09:53:02;20.00;57.10
61398;DHT22;47267;48.130;-2.040;2023-10-09T09:55:38;20.00;57.20
61398;DHT22;47267;48.130;-2.040;2023-10-09T09:58:09;20.00;57.10
61398;DHT22;47267;48.130;-2.040;2023-10-09T10:00:45;20.00;57.10
61398;DHT22;47267;48.130;-2.040;2023-10-09T10:03:34;20.00;57.20
61398;DHT22;47267;48.130;-2.040;2023-10-09T10:06:04;20.00;57.20
61398;DHT22;47267;48.130;-2.040;2023-10-09T10:08:35;20.00;57.20
61398;DHT22;47267;48.130;-2.040;2023-10-09T10:11:07;20.00;57.20
61398;DHT22;47267;48.130;-2.040;2023-10-09T10:16:08;20.00;57.30
61398;DHT22;47267;48.130;-2.040;2023-10-09T10:21:29;20.00;57.20
61398;DHT22;47267;48.130;-2.040;2023-10-09T10:23:58;20.10;57.20
61398;DHT22;47267;48.130;-2.040;2023-10-09T10:26:35;20.00;57.20
61398;DHT22;47267;48.130;-2.040;2023-10-09T10:31:59;20.10;57.20
61398;DHT22;47267;48.130;-2.040;2023-10-09T10:40:09;20.10;57.30
61398;DHT22;47267;48.130;-2.040;2023-10-09T10:42:58;20.10;57.30
61398;DHT22;47267;48.130;-2.040;2023-10-09T10:45:38;20.10;57.30
61398;DHT22;47267;48.130;-2.040;2023-10-09T10:48:09;20.10;57.30
61398;DHT22;47267;48.130;-2.040;2023-10-09T10:50:49;20.10;57.30
61398;DHT22;47267;48.130;-2.040;2023-10-09T10:53:22;20.10;57.30
61398;DHT22;47267;48.130;-2.040;2023-10-09T10:56:00;20.20;57.40
61398;DHT22;47267;48.130;-2.040;2023-10-09T10:58:38;20.20;57.40
61398;DHT22;47267;48.130;-2.040;2023-10-09T11:01:13;20.20;57.40
61398;DHT22;47267;48.130;-2.040;2023-10-09T11:03:39;20.20;57.40
61398;DHT22;47267;48.130;-2.040;2023-10-09T11:06:30;20.20;57.40
61398;DHT22;47267;48.130;-2.040;2023-10-09T11:09:08;20.20;58.00
61398;DHT22;47267;48.130;-2.040;2023-10-09T11:12:04;20.20;57.40
61398;DHT22;47267;48.130;-2.040;2023-10-09T11:14:49;20.20;57.40
61398;DHT22;47267;48.130;-2.040;2023-10-09T11:17:37;20.20;57.40
61398;DHT22;47267;48.130;-2.040;2023-10-09T11:20:06;20.30;57.40
61398;DHT22;47267;48.130;-2.040;2023-10-09T11:22:52;20.30;57.40
61398;DHT22;47267;48.130;-2.040;2023-10-09T11:25:43;20.30;57.40
61398;DHT22;47267;48.130;-2.040;2023-10-09T11:28:20;20.30;57.40
61398;DHT22;47267;48.130;-2.040;2023-10-09T11:31:09;20.30;57.30
61398;DHT22;47267;48.130;-2.040;2023-10-09T11:33:51;20.30;57.30
61398;DHT22;47267;48.130;-2.040;2023-10-09T11:36:18;20.30;57.30
61398;DHT22;47267;48.130;-2.040;2023-10-09T11:38:57;20.30;57.30
61398;DHT22;47267;48.130;-2.040;2023-10-09T11:41:42;20.30;57.30
61398;DHT22;47267;48.130;-2.040;2023-10-09T11:44:10;20.30;57.20
61398;DHT22;47267;48.130;-2.040;2023-10-09T11:47:02;20.30;57.20
61398;DHT22;47267;48.130;-2.040;2023-10-09T11:49:55;20.30;57.20
61398;DHT22;47267;48.130;-2.040;2023-10-09T11:52:55;20.30;57.10
61398;DHT22;47267;48.130;-2.040;2023-10-09T11:55:39;20.30;57.00
61398;DHT22;47267;48.130;-2.040;2023-10-09T11:58:05;20.30;57.00
61398;DHT22;47267;48.130;-2.040;2023-10-09T12:00:32;20.40;57.10
61398;DHT22;47267;48.130;-2.040;2023-10-09T12:03:10;20.40;57.10
61398;DHT22;47267;48.130;-2.040;2023-10-09T12:05:35;20.40;57.10
61398;DHT22;47267;48.130;-2.040;2023-10-09T12:08:02;20.30;57.00
61398;DHT22;47267;48.130;-2.040;2023-10-09T12:10:33;20.40;57.10
61398;DHT22;47267;48.130;-2.040;2023-10-09T12:12:59;20.40;57.10
61398;DHT22;47267;48.130;-2.040;2023-10-09T12:15:25;20.40;57.10
61398;DHT22;47267;48.130;-2.040;2023-10-09T12:18:05;20.40;57.10
61398;DHT22;47267;48.130;-2.040;2023-10-09T12:20:40;20.40;57.10
61398;DHT22;47267;48.130;-2.040;2023-10-09T12:23:06;20.50;57.10
61398;DHT22;47267;48.130;-2.040;2023-10-09T12:25:33;20.50;57.20
61398;DHT22;47267;48.130;-2.040;2023-10-09T12:28:01;20.50;57.20
61398;DHT22;47267;48.130;-2.040;2023-10-09T12:30:30;20.50;57.20
61398;DHT22;47267;48.130;-2.040;2023-10-09T12:32:57;20.50;57.20
61398;DHT22;47267;48.130;-2.040;2023-10-09T12:35:26;20.50;57.20
61398;DHT22;47267;48.130;-2.040;2023-10-09T12:37:53;20.50;57.20
61398;DHT22;47267;48.130;-2.040;2023-10-09T12:40:21;20.60;57.80
61398;DHT22;47267;48.130;-2.040;2023-10-09T12:42:50;20.60;57.30
61398;DHT22;47267;48.130;-2.040;2023-10-09T12:45:16;20.60;57.30
61398;DHT22;47267;48.130;-2.040;2023-10-09T12:47:43;20.60;57.30
61398;DHT22;47267;48.130;-2.040;2023-10-09T12:50:09;20.60;57.30
61398;DHT22;47267;48.130;-2.040;2023-10-09T12:52:35;20.70;57.30
61398;DHT22;47267;48.130;-2.040;2023-10-09T12:55:03;20.70;57.30
61398;DHT22;47267;48.130;-2.040;2023-10-09T12:57:33;20.70;57.30
61398;DHT22;47267;48.130;-2.040;2023-10-09T12:59:59;20.70;57.30
61398;DHT22;47267;48.130;-2.040;2023-10-09T13:02:24;20.70;57.30
61398;DHT22;47267;48.130;-2.040;2023-10-09T13:04:57;20.70;57.30
61398;DHT22;47267;48.130;-2.040;2023-10-09T13:07:22;20.80;57.40
61398;DHT22;47267;48.130;-2.040;2023-10-09T13:09:49;20.80;57.40
61398;DHT22;47267;48.130;-2.040;2023-10-09T13:12:33;20.80;57.40
61398;DHT22;47267;48.130;-2.040;2023-10-09T13:14:58;20.90;57.40
61398;DHT22;47267;48.130;-2.040;2023-10-09T13:17:24;20.80;57.40
61398;DHT22;47267;48.130;-2.040;2023-10-09T13:19:53;20.80;57.40
61398;DHT22;47267;48.130;-2.040;2023-10-09T13:22:20;20.90;57.50
61398;DHT22;47267;48.130;-2.040;2023-10-09T13:24:48;20.90;57.50
61398;DHT22;47267;48.130;-2.040;2023-10-09T13:27:15;20.90;57.40
61398;DHT22;47267;48.130;-2.040;2023-10-09T13:29:47;20.90;57.40
61398;DHT22;47267;48.130;-2.040;2023-10-09T13:32:13;20.90;57.40
61398;DHT22;47267;48.130;-2.040;2023-10-09T13:34:40;21.00;57.50
61398;DHT22;47267;48.130;-2.040;2023-10-09T13:37:12;21.00;57.50
61398;DHT22;47267;48.130;-2.040;2023-10-09T13:39:42;21.00;57.50
61398;DHT22;47267;48.130;-2.040;2023-10-09T13:42:21;21.10;57.50
61398;DHT22;47267;48.130;-2.040;2023-10-09T13:44:51;21.10;57.50
61398;DHT22;47267;48.130;-2.040;2023-10-09T13:47:19;21.10;57.50
61398;DHT22;47267;48.130;-2.040;2023-10-09T13:49:46;21.10;57.50
61398;DHT22;47267;48.130;-2.040;2023-10-09T13:52:16;21.20;57.50
61398;DHT22;47267;48.130;-2.040;2023-10-09T13:54:44;21.20;57.60
61398;DHT22;47267;48.130;-2.040;2023-10-09T13:57:13;21.20;57.60
61398;DHT22;47267;48.130;-2.040;2023-10-09T13:59:41;21.20;57.60
61398;DHT22;47267;48.130;-2.040;2023-10-09T14:02:15;21.30;57.70
61398;DHT22;47267;48.130;-2.040;2023-10-09T14:04:46;21.40;57.80
61398;DHT22;47267;48.130;-2.040;2023-10-09T14:07:12;21.50;57.80
61398;DHT22;47267;48.130;-2.040;2023-10-09T14:09:43;21.60;57.80
61398;DHT22;47267;48.130;-2.040;2023-10-09T14:12:21;21.70;57.80
61398;DHT22;47267;48.130;-2.040;2023-10-09T14:14:48;21.80;57.80
61398;DHT22;47267;48.130;-2.040;2023-10-09T14:17:18;21.80;57.70
61398;DHT22;47267;48.130;-2.040;2023-10-09T14:19:51;21.90;57.70
61398;DHT22;47267;48.130;-2.040;2023-10-09T14:22:19;22.00;57.70
61398;DHT22;47267;48.130;-2.040;2023-10-09T14:24:47;22.00;57.70
61398;DHT22;47267;48.130;-2.040;2023-10-09T14:27:16;22.10;57.70
61398;DHT22;47267;48.130;-2.040;2023-10-09T14:29:48;22.10;57.70
61398;DHT22;47267;48.130;-2.040;2023-10-09T14:32:14;22.20;57.70
61398;DHT22;47267;48.130;-2.040;2023-10-09T14:34:41;22.20;57.70
61398;DHT22;47267;48.130;-2.040;2023-10-09T14:37:19;22.20;57.60
61398;DHT22;47267;48.130;-2.040;2023-10-09T14:39:45;22.30;57.70
61398;DHT22;47267;48.130;-2.040;2023-10-09T14:42:14;22.30;57.70
61398;DHT22;47267;48.130;-2.040;2023-10-09T14:44:41;22.30;57.70
61398;DHT22;47267;48.130;-2.040;2023-10-09T14:47:07;22.30;57.70
61398;DHT22;47267;48.130;-2.040;2023-10-09T14:49:33;22.40;57.70
61398;DHT22;47267;48.130;-2.040;2023-10-09T14:52:05;22.40;57.70
61398;DHT22;47267;48.130;-2.040;2023-10-09T14:54:34;22.40;57.70
61398;DHT22;47267;48.130;-2.040;2023-10-09T14:57:00;22.40;57.70
61398;DHT22;47267;48.130;-2.040;2023-10-09T14:59:26;22.40;57.70
61398;DHT22;47267;48.130;-2.040;2023-10-09T15:01:51;22.50;57.80
61398;DHT22;47267;48.130;-2.040;2023-10-09T15:04:19;22.50;57.80
61398;DHT22;47267;48.130;-2.040;2023-10-09T15:06:45;22.50;57.80
61398;DHT22;47267;48.130;-2.040;2023-10-09T15:09:15;22.50;57.80
61398;DHT22;47267;48.130;-2.040;2023-10-09T15:11:54;22.50;57.80
61398;DHT22;47267;48.130;-2.040;2023-10-09T15:14:20;22.60;57.80
61398;DHT22;47267;48.130;-2.040;2023-10-09T15:16:47;22.60;57.80
61398;DHT22;47267;48.130;-2.040;2023-10-09T15:19:14;22.60;57.80
61398;DHT22;47267;48.130;-2.040;2023-10-09T15:21:40;22.60;57.80
61398;DHT22;47267;48.130;-2.040;2023-10-09T15:24:13;22.60;57.80
61398;DHT22;47267;48.130;-2.040;2023-10-09T15:26:44;22.60;57.80
61398;DHT22;47267;48.130;-2.040;2023-10-09T15:29:18;22.60;57.80
61398;DHT22;47267;48.130;-2.040;2023-10-09T15:31:45;22.70;57.80
61398;DHT22;47267;48.130;-2.040;2023-10-09T15:34:12;22.70;57.80
61398;DHT22;47267;48.130;-2.040;2023-10-09T15:36:38;22.70;57.80
61398;DHT22;47267;48.130;-2.040;2023-10-09T15:39:06;22.70;57.80
61398;DHT22;47267;48.130;-2.040;2023-10-09T15:41:36;22.70;57.80
61398;DHT22;47267;48.130;-2.040;2023-10-09T15:44:05;22.70;57.80
61398;DHT22;47267;48.130;-2.040;2023-10-09T15:46:31;22.70;57.80
61398;DHT22;47267;48.130;-2.040;2023-10-09T15:49:00;22.70;57.80
61398;DHT22;47267;48.130;-2.040;2023-10-09T15:51:27;22.80;57.80
61398;DHT22;47267;48.130;-2.040;2023-10-09T15:53:53;22.80;57.80
61398;DHT22;47267;48.130;-2.040;2023-10-09T15:56:18;22.80;57.80
61398;DHT22;47267;48.130;-2.040;2023-10-09T15:58:46;22.80;57.80
61398;DHT22;47267;48.130;-2.040;2023-10-09T16:01:13;22.80;57.80
61398;DHT22;47267;48.130;-2.040;2023-10-09T16:03:43;22.80;57.80
61398;DHT22;47267;48.130;-2.040;2023-10-09T16:06:12;22.80;57.90
61398;DHT22;47267;48.130;-2.040;2023-10-09T16:08:44;22.90;57.80